sensor_id;sensor_type;location;lat;lon;timestamp;P1;durP1;ratioP1;P2;durP2;ratioP2
8458;SDS011;4266;48.816;9.154;2023-04-25T00:02:12;3.70;;;3.40;;
8458;SDS011;4266;48.816;9.154;2023-04-25T00:04:37;3.80;;;3.50;;
8458;SDS011;4266;48.816;9.154;2023-04-25T00:07:03;3.87;;;3.57;;
8458;SDS011;4266;48.816;9.154;2023-04-25T00:09:29;3.37;;;3.07;;
8458;SDS011;4266;48.816;9.154;2023-04-25T00:11:55;3.30;;;3.10;;
8458;SDS011;4266;48.816;9.154;2023-04-25T00:14:21;3.50;;;3.30;;
8458;SDS011;4266;48.816;9.154;2023-04-25T00:16:46;3.50;;;3.20;;
8458;SDS011;4266;48.816;9.154;2023-04-25T00:19:12;3.13;;;2.93;;
8458;SDS011;4266;48.816;9.154;2023-04-25T00:21:38;3.67;;;3.43;;
8458;SDS011;4266;48.816;9.154;2023-04-25T00:24:04;3.47;;;3.27;;
8458;SDS011;4266;48.816;9.154;2023-04-25T00:26:33;3.73;;;2.97;;
8458;SDS011;4266;48.816;9.154;2023-04-25T00:28:57;3.07;;;2.87;;
8458;SDS011;4266;48.816;9.154;2023-04-25T00:31:23;3.37;;;3.00;;
8458;SDS011;4266;48.816;9.154;2023-04-25T00:33:48;3.23;;;3.03;;
8458;SDS011;4266;48.816;9.154;2023-04-25T00:36:14;3.10;;;2.90;;
8458;SDS011;4266;48.816;9.154;2023-04-25T00:38:40;3.63;;;3.33;;
8458;SDS011;4266;48.816;9.154;2023-04-25T00:41:07;3.80;;;3.40;;
8458;SDS011;4266;48.816;9.154;2023-04-25T00:43:31;3.97;;;3.60;;
8458;SDS011;4266;48.816;9.154;2023-04-25T00:45:57;3.90;;;3.20;;
8458;SDS011;4266;48.816;9.154;2023-04-25T00:48:23;3.33;;;3.13;;
8458;SDS011;4266;48.816;9.154;2023-04-25T00:50:51;3.43;;;3.23;;
8458;SDS011;4266;48.816;9.154;2023-04-25T00:53:16;3.40;;;3.20;;
8458;SDS011;4266;48.816;9.154;2023-04-25T00:55:42;3.57;;;3.37;;
8458;SDS011;4266;48.816;9.154;2023-04-25T00:58:07;3.10;;;2.90;;
8458;SDS011;4266;48.816;9.154;2023-04-25T01:00:33;4.80;;;2.83;;
8458;SDS011;4266;48.816;9.154;2023-04-25T01:02:59;3.43;;;3.20;;
8458;SDS011;4266;48.816;9.154;2023-04-25T01:05:25;8.30;;;4.00;;
8458;SDS011;4266;48.816;9.154;2023-04-25T01:07:51;4.10;;;3.80;;
8458;SDS011;4266;48.816;9.154;2023-04-25T01:10:17;3.30;;;3.10;;
8458;SDS011;4266;48.816;9.154;2023-04-25T01:12:43;4.33;;;3.93;;
8458;SDS011;4266;48.816;9.154;2023-04-25T01:15:09;3.93;;;3.63;;
8458;SDS011;4266;48.816;9.154;2023-04-25T01:17:35;4.67;;;4.27;;
8458;SDS011;4266;48.816;9.154;2023-04-25T01:20:04;3.90;;;3.40;;
8458;SDS011;4266;48.816;9.154;2023-04-25T01:22:29;4.53;;;3.30;;
8458;SDS011;4266;48.816;9.154;2023-04-25T01:24:54;3.90;;;3.60;;
8458;SDS011;4266;48.816;9.154;2023-04-25T01:27:20;4.63;;;3.53;;
8458;SDS011;4266;48.816;9.154;2023-04-25T01:29:46;4.20;;;3.90;;
8458;SDS011;4266;48.816;9.154;2023-04-25T01:32:11;3.80;;;3.50;;
8458;SDS011;4266;48.816;9.154;2023-04-25T01:34:38;4.27;;;3.73;;
8458;SDS011;4266;48.816;9.154;2023-04-25T01:37:03;4.27;;;3.97;;
8458;SDS011;4266;48.816;9.154;2023-04-25T01:39:29;5.07;;;3.73;;
8458;SDS011;4266;48.816;9.154;2023-04-25T01:41:55;4.67;;;3.63;;
8458;SDS011;4266;48.816;9.154;2023-04-25T01:44:20;4.70;;;4.20;;
8458;SDS011;4266;48.816;9.154;2023-04-25T01:46:46;4.47;;;4.07;;
8458;SDS011;4266;48.816;9.154;2023-04-25T01:49:12;4.47;;;4.07;;
8458;SDS011;4266;48.816;9.154;2023-04-25T01:51:38;4.27;;;3.97;;
8458;SDS011;4266;48.816;9.154;2023-04-25T01:54:04;3.77;;;3.47;;
8458;SDS011;4266;48.816;9.154;2023-04-25T01:56:30;3.83;;;3.50;;
8458;SDS011;4266;48.816;9.154;2023-04-25T01:58:57;4.07;;;3.73;;
8458;SDS011;4266;48.816;9.154;2023-04-25T02:01:23;5.20;;;3.83;;
8458;SDS011;4266;48.816;9.154;2023-04-25T02:03:48;5.53;;;3.90;;
8458;SDS011;4266;48.816;9.154;2023-04-25T02:06:15;4.43;;;4.03;;
8458;SDS011;4266;48.816;9.154;2023-04-25T02:08:41;5.83;;;4.10;;
8458;SDS011;4266;48.816;9.154;2023-04-25T02:11:07;4.23;;;3.97;;
8458;SDS011;4266;48.816;9.154;2023-04-25T02:13:32;4.10;;;3.80;;
8458;SDS011;4266;48.816;9.154;2023-04-25T02:15:58;3.80;;;3.60;;
8458;SDS011;4266;48.816;9.154;2023-04-25T02:18:24;5.07;;;3.70;;
8458;SDS011;4266;48.816;9.154;2023-04-25T02:20:50;4.40;;;4.00;;
8458;SDS011;4266;48.816;9.154;2023-04-25T02:23:15;3.90;;;3.70;;
8458;SDS011;4266;48.816;9.154;2023-04-25T02:25:42;4.40;;;4.10;;
8458;SDS011;4266;48.816;9.154;2023-04-25T02:28:07;4.63;;;4.33;;
8458;SDS011;4266;48.816;9.154;2023-04-25T02:30:33;4.10;;;3.90;;
8458;SDS011;4266;48.816;9.154;2023-04-25T02:32:59;4.67;;;4.33;;
8458;SDS011;4266;48.816;9.154;2023-04-25T02:35:24;4.47;;;4.07;;
8458;SDS011;4266;48.816;9.154;2023-04-25T02:37:50;5.57;;;4.57;;
8458;SDS011;4266;48.816;9.154;2023-04-25T02:40:16;4.57;;;4.27;;
8458;SDS011;4266;48.816;9.154;2023-04-25T02:42:41;4.63;;;4.33;;
8458;SDS011;4266;48.816;9.154;2023-04-25T02:45:07;5.20;;;4.17;;
8458;SDS011;4266;48.816;9.154;2023-04-25T02:47:34;6.03;;;4.30;;
8458;SDS011;4266;48.816;9.154;2023-04-25T02:50:00;4.07;;;3.77;;
8458;SDS011;4266;48.816;9.154;2023-04-25T02:52:26;4.00;;;3.80;;
8458;SDS011;4266;48.816;9.154;2023-04-25T02:54:52;4.50;;;3.90;;
8458;SDS011;4266;48.816;9.154;2023-04-25T02:57:18;4.07;;;3.77;;
8458;SDS011;4266;48.816;9.154;2023-04-25T02:59:44;6.40;;;4.73;;
8458;SDS011;4266;48.816;9.154;2023-04-25T03:02:10;4.30;;;4.00;;
8458;SDS011;4266;48.816;9.154;2023-04-25T03:04:36;4.63;;;3.43;;
8458;SDS011;4266;48.816;9.154;2023-04-25T03:07:01;4.90;;;4.47;;
8458;SDS011;4266;48.816;9.154;2023-04-25T03:09:28;4.70;;;4.30;;
8458;SDS011;4266;48.816;9.154;2023-04-25T03:11:53;4.73;;;4.23;;
8458;SDS011;4266;48.816;9.154;2023-04-25T03:14:20;4.97;;;4.27;;
8458;SDS011;4266;48.816;9.154;2023-04-25T03:16:45;4.30;;;4.00;;
8458;SDS011;4266;48.816;9.154;2023-04-25T03:19:11;4.20;;;3.83;;
8458;SDS011;4266;48.816;9.154;2023-04-25T03:21:37;5.53;;;4.23;;
8458;SDS011;4266;48.816;9.154;2023-04-25T03:24:03;4.70;;;4.30;;
8458;SDS011;4266;48.816;9.154;2023-04-25T03:26:30;4.50;;;4.20;;
8458;SDS011;4266;48.816;9.154;2023-04-25T03:28:56;4.63;;;4.33;;
8458;SDS011;4266;48.816;9.154;2023-04-25T03:31:22;4.60;;;4.10;;
8458;SDS011;4266;48.816;9.154;2023-04-25T03:33:47;4.60;;;4.20;;
8458;SDS011;4266;48.816;9.154;2023-04-25T03:36:13;4.93;;;4.50;;
8458;SDS011;4266;48.816;9.154;2023-04-25T03:38:39;5.23;;;4.83;;
8458;SDS011;4266;48.816;9.154;2023-04-25T03:41:04;6.30;;;4.23;;
8458;SDS011;4266;48.816;9.154;2023-04-25T03:43:30;4.33;;;4.03;;
8458;SDS011;4266;48.816;9.154;2023-04-25T03:45:56;4.57;;;4.10;;
8458;SDS011;4266;48.816;9.154;2023-04-25T03:48:23;4.87;;;4.47;;
8458;SDS011;4266;48.816;9.154;2023-04-25T03:50:48;4.47;;;4.03;;
8458;SDS011;4266;48.816;9.154;2023-04-25T03:53:14;4.47;;;4.17;;
8458;SDS011;4266;48.816;9.154;2023-04-25T03:55:40;4.60;;;4.20;;
8458;SDS011;4266;48.816;9.154;2023-04-25T03:58:06;6.20;;;4.77;;
8458;SDS011;4266;48.816;9.154;2023-04-25T04:00:33;6.37;;;4.57;;
8458;SDS011;4266;48.816;9.154;2023-04-25T04:02:59;7.47;;;5.80;;
8458;SDS011;4266;48.816;9.154;2023-04-25T04:05:26;5.63;;;4.97;;
8458;SDS011;4266;48.816;9.154;2023-04-25T04:07:51;4.80;;;4.40;;
8458;SDS011;4266;48.816;9.154;2023-04-25T04:10:18;4.90;;;4.37;;
8458;SDS011;4266;48.816;9.154;2023-04-25T04:12:44;4.53;;;4.13;;
8458;SDS011;4266;48.816;9.154;2023-04-25T04:15:10;5.70;;;4.17;;
8458;SDS011;4266;48.816;9.154;2023-04-25T04:17:37;4.70;;;4.13;;
8458;SDS011;4266;48.816;9.154;2023-04-25T04:20:02;4.87;;;4.33;;
8458;SDS011;4266;48.816;9.154;2023-04-25T04:22:29;4.63;;;4.33;;
8458;SDS011;4266;48.816;9.154;2023-04-25T04:24:55;5.03;;;4.33;;
8458;SDS011;4266;48.816;9.154;2023-04-25T04:27:22;6.33;;;4.93;;
8458;SDS011;4266;48.816;9.154;2023-04-25T04:29:47;5.40;;;4.90;;
8458;SDS011;4266;48.816;9.154;2023-04-25T04:32:14;4.50;;;4.10;;
8458;SDS011;4266;48.816;9.154;2023-04-25T04:34:40;5.17;;;4.67;;
8458;SDS011;4266;48.816;9.154;2023-04-25T04:37:06;4.53;;;4.20;;
8458;SDS011;4266;48.816;9.154;2023-04-25T04:39:33;5.43;;;4.60;;
8458;SDS011;4266;48.816;9.154;2023-04-25T04:41:58;5.10;;;4.60;;
8458;SDS011;4266;48.816;9.154;2023-04-25T04:44:24;5.60;;;5.07;;
8458;SDS011;4266;48.816;9.154;2023-04-25T04:46:50;5.27;;;4.77;;
8458;SDS011;4266;48.816;9.154;2023-04-25T04:49:16;5.30;;;4.80;;
8458;SDS011;4266;48.816;9.154;2023-04-25T04:51:41;5.30;;;4.80;;
8458;SDS011;4266;48.816;9.154;2023-04-25T04:54:07;5.30;;;4.80;;
8458;SDS011;4266;48.816;9.154;2023-04-25T04:56:33;5.87;;;5.30;;
8458;SDS011;4266;48.816;9.154;2023-04-25T04:58:58;5.53;;;4.90;;
8458;SDS011;4266;48.816;9.154;2023-04-25T05:01:24;5.43;;;5.07;;
8458;SDS011;4266;48.816;9.154;2023-04-25T05:03:50;8.10;;;6.87;;
8458;SDS011;4266;48.816;9.154;2023-04-25T05:06:16;6.50;;;5.90;;
8458;SDS011;4266;48.816;9.154;2023-04-25T05:08:42;7.83;;;4.87;;
8458;SDS011;4266;48.816;9.154;2023-04-25T05:11:09;5.93;;;5.30;;
8458;SDS011;4266;48.816;9.154;2023-04-25T05:13:33;8.50;;;7.73;;
8458;SDS011;4266;48.816;9.154;2023-04-25T05:16:00;6.57;;;5.97;;
8458;SDS011;4266;48.816;9.154;2023-04-25T05:18:26;9.10;;;8.23;;
8458;SDS011;4266;48.816;9.154;2023-04-25T05:20:52;7.10;;;5.90;;
8458;SDS011;4266;48.816;9.154;2023-04-25T05:23:18;7.90;;;5.10;;
8458;SDS011;4266;48.816;9.154;2023-04-25T05:25:44;6.90;;;5.37;;
8458;SDS011;4266;48.816;9.154;2023-04-25T05:28:12;6.73;;;5.30;;
8458;SDS011;4266;48.816;9.154;2023-04-25T05:30:36;5.53;;;4.77;;
8458;SDS011;4266;48.816;9.154;2023-04-25T05:33:03;6.17;;;4.47;;
8458;SDS011;4266;48.816;9.154;2023-04-25T05:35:29;7.03;;;5.20;;
8458;SDS011;4266;48.816;9.154;2023-04-25T05:37:55;5.97;;;5.47;;
8458;SDS011;4266;48.816;9.154;2023-04-25T05:40:21;5.17;;;4.83;;
8458;SDS011;4266;48.816;9.154;2023-04-25T05:42:48;6.40;;;5.90;;
8458;SDS011;4266;48.816;9.154;2023-04-25T05:45:13;5.53;;;5.13;;
8458;SDS011;4266;48.816;9.154;2023-04-25T05:47:39;6.83;;;6.23;;
8458;SDS011;4266;48.816;9.154;2023-04-25T05:50:05;5.73;;;5.33;;
8458;SDS011;4266;48.816;9.154;2023-04-25T05:52:34;5.80;;;5.30;;
8458;SDS011;4266;48.816;9.154;2023-04-25T05:55:00;6.40;;;5.77;;
8458;SDS011;4266;48.816;9.154;2023-04-25T05:57:26;10.20;;;5.70;;
8458;SDS011;4266;48.816;9.154;2023-04-25T05:59:52;5.13;;;4.83;;
8458;SDS011;4266;48.816;9.154;2023-04-25T06:02:19;5.73;;;4.90;;
8458;SDS011;4266;48.816;9.154;2023-04-25T06:04:45;5.77;;;5.37;;
8458;SDS011;4266;48.816;9.154;2023-04-25T06:07:10;6.47;;;5.87;;
8458;SDS011;4266;48.816;9.154;2023-04-25T06:09:36;5.60;;;5.20;;
8458;SDS011;4266;48.816;9.154;2023-04-25T06:12:02;5.50;;;5.10;;
8458;SDS011;4266;48.816;9.154;2023-04-25T06:14:28;5.50;;;5.00;;
8458;SDS011;4266;48.816;9.154;2023-04-25T06:16:53;5.50;;;5.10;;
8458;SDS011;4266;48.816;9.154;2023-04-25T06:19:19;5.80;;;5.20;;
8458;SDS011;4266;48.816;9.154;2023-04-25T06:21:45;6.10;;;5.40;;
8458;SDS011;4266;48.816;9.154;2023-04-25T06:24:10;5.30;;;5.00;;
8458;SDS011;4266;48.816;9.154;2023-04-25T06:26:36;5.47;;;4.97;;
8458;SDS011;4266;48.816;9.154;2023-04-25T06:29:02;5.00;;;4.70;;
8458;SDS011;4266;48.816;9.154;2023-04-25T06:31:28;5.73;;;5.33;;
8458;SDS011;4266;48.816;9.154;2023-04-25T06:33:54;4.97;;;4.57;;
8458;SDS011;4266;48.816;9.154;2023-04-25T06:36:20;5.00;;;4.67;;
8458;SDS011;4266;48.816;9.154;2023-04-25T06:38:46;8.63;;;4.73;;
8458;SDS011;4266;48.816;9.154;2023-04-25T06:41:11;6.90;;;4.77;;
8458;SDS011;4266;48.816;9.154;2023-04-25T06:43:37;5.03;;;4.67;;
8458;SDS011;4266;48.816;9.154;2023-04-25T06:46:03;5.70;;;5.30;;
8458;SDS011;4266;48.816;9.154;2023-04-25T06:48:29;5.33;;;4.93;;
8458;SDS011;4266;48.816;9.154;2023-04-25T06:50:55;5.70;;;5.30;;
8458;SDS011;4266;48.816;9.154;2023-04-25T06:53:20;5.37;;;4.97;;
8458;SDS011;4266;48.816;9.154;2023-04-25T06:55:46;5.53;;;5.10;;
8458;SDS011;4266;48.816;9.154;2023-04-25T06:58:12;5.43;;;5.03;;
8458;SDS011;4266;48.816;9.154;2023-04-25T07:00:37;5.37;;;5.00;;
8458;SDS011;4266;48.816;9.154;2023-04-25T07:03:04;5.93;;;5.37;;
8458;SDS011;4266;48.816;9.154;2023-04-25T07:05:30;5.60;;;5.00;;
8458;SDS011;4266;48.816;9.154;2023-04-25T07:07:56;5.53;;;5.07;;
8458;SDS011;4266;48.816;9.154;2023-04-25T07:10:22;6.10;;;5.70;;
8458;SDS011;4266;48.816;9.154;2023-04-25T07:12:47;6.20;;;5.77;;
8458;SDS011;4266;48.816;9.154;2023-04-25T07:15:13;6.03;;;5.63;;
8458;SDS011;4266;48.816;9.154;2023-04-25T07:17:39;5.60;;;5.20;;
8458;SDS011;4266;48.816;9.154;2023-04-25T07:20:05;5.80;;;5.40;;
8458;SDS011;4266;48.816;9.154;2023-04-25T07:22:32;5.50;;;5.13;;
8458;SDS011;4266;48.816;9.154;2023-04-25T07:24:57;4.90;;;4.60;;
8458;SDS011;4266;48.816;9.154;2023-04-25T07:27:23;5.43;;;5.03;;
8458;SDS011;4266;48.816;9.154;2023-04-25T07:29:49;6.27;;;5.67;;
8458;SDS011;4266;48.816;9.154;2023-04-25T07:32:14;6.00;;;5.50;;
8458;SDS011;4266;48.816;9.154;2023-04-25T07:34:40;5.73;;;5.23;;
8458;SDS011;4266;48.816;9.154;2023-04-25T07:37:06;5.63;;;5.23;;
8458;SDS011;4266;48.816;9.154;2023-04-25T07:39:31;5.63;;;5.23;;
8458;SDS011;4266;48.816;9.154;2023-04-25T07:41:57;5.87;;;5.00;;
8458;SDS011;4266;48.816;9.154;2023-04-25T07:44:24;5.53;;;5.13;;
8458;SDS011;4266;48.816;9.154;2023-04-25T07:46:49;5.57;;;5.17;;
8458;SDS011;4266;48.816;9.154;2023-04-25T07:49:15;6.53;;;5.20;;
8458;SDS011;4266;48.816;9.154;2023-04-25T07:51:41;6.50;;;5.83;;
8458;SDS011;4266;48.816;9.154;2023-04-25T07:54:06;6.07;;;5.57;;
8458;SDS011;4266;48.816;9.154;2023-04-25T07:56:32;6.50;;;6.00;;
8458;SDS011;4266;48.816;9.154;2023-04-25T07:58:57;6.77;;;6.27;;
8458;SDS011;4266;48.816;9.154;2023-04-25T08:01:24;6.57;;;5.87;;
8458;SDS011;4266;48.816;9.154;2023-04-25T08:03:50;6.43;;;5.83;;
8458;SDS011;4266;48.816;9.154;2023-04-25T08:06:15;5.80;;;5.40;;
8458;SDS011;4266;48.816;9.154;2023-04-25T08:08:41;5.70;;;5.17;;
8458;SDS011;4266;48.816;9.154;2023-04-25T08:11:07;6.97;;;5.47;;
8458;SDS011;4266;48.816;9.154;2023-04-25T08:13:34;6.33;;;5.73;;
8458;SDS011;4266;48.816;9.154;2023-04-25T08:15:59;5.77;;;5.37;;
8458;SDS011;4266;48.816;9.154;2023-04-25T08:18:26;5.97;;;5.47;;
8458;SDS011;4266;48.816;9.154;2023-04-25T08:20:51;7.33;;;6.47;;
8458;SDS011;4266;48.816;9.154;2023-04-25T08:23:17;5.70;;;5.30;;
8458;SDS011;4266;48.816;9.154;2023-04-25T08:25:43;5.83;;;5.33;;
8458;SDS011;4266;48.816;9.154;2023-04-25T08:28:08;6.27;;;5.67;;
8458;SDS011;4266;48.816;9.154;2023-04-25T08:30:34;6.17;;;5.70;;
8458;SDS011;4266;48.816;9.154;2023-04-25T08:33:00;5.97;;;5.47;;
8458;SDS011;4266;48.816;9.154;2023-04-25T08:35:26;5.50;;;5.10;;
8458;SDS011;4266;48.816;9.154;2023-04-25T08:37:52;7.43;;;5.90;;
8458;SDS011;4266;48.816;9.154;2023-04-25T08:40:18;6.30;;;5.70;;
8458;SDS011;4266;48.816;9.154;2023-04-25T08:42:44;6.37;;;5.77;;
8458;SDS011;4266;48.816;9.154;2023-04-25T08:45:11;5.97;;;5.50;;
8458;SDS011;4266;48.816;9.154;2023-04-25T08:47:38;5.97;;;5.40;;
8458;SDS011;4266;48.816;9.154;2023-04-25T08:50:03;5.87;;;5.47;;
8458;SDS011;4266;48.816;9.154;2023-04-25T08:52:32;5.47;;;5.07;;
8458;SDS011;4266;48.816;9.154;2023-04-25T08:54:57;6.37;;;5.87;;
8458;SDS011;4266;48.816;9.154;2023-04-25T08:57:23;6.63;;;5.90;;
8458;SDS011;4266;48.816;9.154;2023-04-25T08:59:48;6.67;;;5.40;;
8458;SDS011;4266;48.816;9.154;2023-04-25T09:02:14;5.93;;;5.43;;
8458;SDS011;4266;48.816;9.154;2023-04-25T09:04:40;5.77;;;5.30;;
8458;SDS011;4266;48.816;9.154;2023-04-25T09:07:05;6.03;;;5.53;;
8458;SDS011;4266;48.816;9.154;2023-04-25T09:09:32;5.60;;;5.13;;
8458;SDS011;4266;48.816;9.154;2023-04-25T09:11:57;5.73;;;5.33;;
8458;SDS011;4266;48.816;9.154;2023-04-25T09:14:23;5.20;;;4.80;;
8458;SDS011;4266;48.816;9.154;2023-04-25T09:17:06;5.20;;;4.90;;
8458;SDS011;4266;48.816;9.154;2023-04-25T09:19:32;5.77;;;5.27;;
8458;SDS011;4266;48.816;9.154;2023-04-25T09:21:58;5.63;;;5.23;;
8458;SDS011;4266;48.816;9.154;2023-04-25T09:26:55;5.57;;;5.07;;
8458;SDS011;4266;48.816;9.154;2023-04-25T09:29:24;5.87;;;5.37;;
8458;SDS011;4266;48.816;9.154;2023-04-25T09:31:46;5.53;;;5.13;;
8458;SDS011;4266;48.816;9.154;2023-04-25T09:34:12;5.60;;;5.10;;
8458;SDS011;4266;48.816;9.154;2023-04-25T09:36:38;5.23;;;4.83;;
8458;SDS011;4266;48.816;9.154;2023-04-25T09:39:03;5.57;;;4.60;;
8458;SDS011;4266;48.816;9.154;2023-04-25T09:41:29;4.70;;;4.40;;
8458;SDS011;4266;48.816;9.154;2023-04-25T09:43:57;4.70;;;4.40;;
8458;SDS011;4266;48.816;9.154;2023-04-25T09:46:23;4.70;;;4.40;;
8458;SDS011;4266;48.816;9.154;2023-04-25T09:48:50;7.27;;;4.97;;
8458;SDS011;4266;48.816;9.154;2023-04-25T09:51:15;4.97;;;4.67;;
8458;SDS011;4266;48.816;9.154;2023-04-25T09:53:44;8.20;;;4.90;;
8458;SDS011;4266;48.816;9.154;2023-04-25T09:56:09;6.07;;;5.67;;
8458;SDS011;4266;48.816;9.154;2023-04-25T09:58:35;6.50;;;6.00;;
8458;SDS011;4266;48.816;9.154;2023-04-25T10:01:02;13.53;;;6.07;;
8458;SDS011;4266;48.816;9.154;2023-04-25T10:03:29;4.80;;;4.40;;
8458;SDS011;4266;48.816;9.154;2023-04-25T10:05:52;6.43;;;5.83;;
8458;SDS011;4266;48.816;9.154;2023-04-25T10:08:18;6.97;;;6.37;;
8458;SDS011;4266;48.816;9.154;2023-04-25T10:10:44;6.57;;;6.17;;
8458;SDS011;4266;48.816;9.154;2023-04-25T10:13:09;5.23;;;4.90;;
8458;SDS011;4266;48.816;9.154;2023-04-25T10:15:36;5.80;;;5.50;;
8458;SDS011;4266;48.816;9.154;2023-04-25T10:18:02;5.97;;;5.57;;
8458;SDS011;4266;48.816;9.154;2023-04-25T10:20:27;4.20;;;3.90;;
8458;SDS011;4266;48.816;9.154;2023-04-25T10:22:54;3.97;;;3.67;;
8458;SDS011;4266;48.816;9.154;2023-04-25T10:25:19;3.70;;;3.50;;
8458;SDS011;4266;48.816;9.154;2023-04-25T10:27:44;4.30;;;4.00;;
8458;SDS011;4266;48.816;9.154;2023-04-25T10:30:12;3.80;;;3.60;;
8458;SDS011;4266;48.816;9.154;2023-04-25T10:32:41;3.73;;;3.53;;
8458;SDS011;4266;48.816;9.154;2023-04-25T10:35:12;6.40;;;4.40;;
8458;SDS011;4266;48.816;9.154;2023-04-25T10:37:38;4.90;;;4.47;;
8458;SDS011;4266;48.816;9.154;2023-04-25T10:40:08;5.00;;;4.60;;
8458;SDS011;4266;48.816;9.154;2023-04-25T10:42:33;5.43;;;5.03;;
8458;SDS011;4266;48.816;9.154;2023-04-25T10:45:02;6.67;;;6.07;;
8458;SDS011;4266;48.816;9.154;2023-04-25T10:47:35;5.90;;;5.50;;
8458;SDS011;4266;48.816;9.154;2023-04-25T10:50:04;6.70;;;6.20;;
8458;SDS011;4266;48.816;9.154;2023-04-25T10:52:26;6.57;;;5.57;;
8458;SDS011;4266;48.816;9.154;2023-04-25T10:54:53;6.20;;;5.73;;
8458;SDS011;4266;48.816;9.154;2023-04-25T10:57:26;5.80;;;5.17;;
8458;SDS011;4266;48.816;9.154;2023-04-25T11:00:09;6.07;;;5.57;;
8458;SDS011;4266;48.816;9.154;2023-04-25T11:02:40;6.17;;;5.77;;
8458;SDS011;4266;48.816;9.154;2023-04-25T11:07:50;5.50;;;5.10;;
8458;SDS011;4266;48.816;9.154;2023-04-25T11:10:15;5.07;;;4.57;;
8458;SDS011;4266;48.816;9.154;2023-04-25T11:12:40;5.80;;;5.40;;
8458;SDS011;4266;48.816;9.154;2023-04-25T11:15:07;5.40;;;5.00;;
8458;SDS011;4266;48.816;9.154;2023-04-25T11:17:34;4.60;;;4.20;;
8458;SDS011;4266;48.816;9.154;2023-04-25T11:20:00;4.17;;;3.87;;
8458;SDS011;4266;48.816;9.154;2023-04-25T11:22:26;4.50;;;4.20;;
8458;SDS011;4266;48.816;9.154;2023-04-25T11:24:52;4.50;;;4.20;;
8458;SDS011;4266;48.816;9.154;2023-04-25T11:27:18;4.20;;;3.90;;
8458;SDS011;4266;48.816;9.154;2023-04-25T11:29:44;3.50;;;3.30;;
8458;SDS011;4266;48.816;9.154;2023-04-25T11:32:10;3.83;;;3.50;;
8458;SDS011;4266;48.816;9.154;2023-04-25T11:34:36;3.03;;;2.90;;
8458;SDS011;4266;48.816;9.154;2023-04-25T11:37:02;3.70;;;3.50;;
8458;SDS011;4266;48.816;9.154;2023-04-25T11:39:27;4.80;;;4.00;;
8458;SDS011;4266;48.816;9.154;2023-04-25T11:41:53;4.37;;;4.07;;
8458;SDS011;4266;48.816;9.154;2023-04-25T11:44:19;4.17;;;3.87;;
8458;SDS011;4266;48.816;9.154;2023-04-25T11:46:45;4.37;;;4.07;;
8458;SDS011;4266;48.816;9.154;2023-04-25T11:49:11;4.33;;;3.87;;
8458;SDS011;4266;48.816;9.154;2023-04-25T11:51:39;4.53;;;4.23;;
8458;SDS011;4266;48.816;9.154;2023-04-25T11:54:06;4.70;;;4.40;;
8458;SDS011;4266;48.816;9.154;2023-04-25T11:56:32;4.63;;;4.33;;
8458;SDS011;4266;48.816;9.154;2023-04-25T11:58:59;5.23;;;4.77;;
8458;SDS011;4266;48.816;9.154;2023-04-25T12:01:26;5.57;;;5.07;;
8458;SDS011;4266;48.816;9.154;2023-04-25T12:03:52;5.30;;;4.90;;
8458;SDS011;4266;48.816;9.154;2023-04-25T12:06:18;4.50;;;4.20;;
8458;SDS011;4266;48.816;9.154;2023-04-25T12:11:22;4.33;;;4.03;;
8458;SDS011;4266;48.816;9.154;2023-04-25T12:13:51;7.47;;;4.50;;
8458;SDS011;4266;48.816;9.154;2023-04-25T12:16:13;4.90;;;4.60;;
8458;SDS011;4266;48.816;9.154;2023-04-25T12:18:39;5.90;;;5.00;;
8458;SDS011;4266;48.816;9.154;2023-04-25T12:21:05;6.17;;;5.63;;
8458;SDS011;4266;48.816;9.154;2023-04-25T12:23:30;6.20;;;5.70;;
8458;SDS011;4266;48.816;9.154;2023-04-25T12:25:57;5.53;;;5.03;;
8458;SDS011;4266;48.816;9.154;2023-04-25T12:28:23;6.30;;;5.70;;
8458;SDS011;4266;48.816;9.154;2023-04-25T12:33:21;6.80;;;6.17;;
8458;SDS011;4266;48.816;9.154;2023-04-25T12:35:47;7.20;;;6.70;;
8458;SDS011;4266;48.816;9.154;2023-04-25T12:40:47;7.53;;;6.83;;
8458;SDS011;4266;48.816;9.154;2023-04-25T12:43:12;7.07;;;6.50;;
8458;SDS011;4266;48.816;9.154;2023-04-25T12:45:38;7.33;;;6.63;;
8458;SDS011;4266;48.816;9.154;2023-04-25T12:48:04;6.90;;;6.20;;
8458;SDS011;4266;48.816;9.154;2023-04-25T12:50:30;6.67;;;6.13;;
8458;SDS011;4266;48.816;9.154;2023-04-25T12:52:56;9.67;;;6.80;;
8458;SDS011;4266;48.816;9.154;2023-04-25T12:55:22;7.30;;;6.70;;
8458;SDS011;4266;48.816;9.154;2023-04-25T12:57:47;6.87;;;6.27;;
8458;SDS011;4266;48.816;9.154;2023-04-25T13:00:13;8.30;;;7.20;;
8458;SDS011;4266;48.816;9.154;2023-04-25T13:02:40;6.80;;;6.10;;
8458;SDS011;4266;48.816;9.154;2023-04-25T13:05:06;6.87;;;6.20;;
8458;SDS011;4266;48.816;9.154;2023-04-25T13:07:32;6.83;;;6.30;;
8458;SDS011;4266;48.816;9.154;2023-04-25T13:09:58;7.37;;;6.57;;
8458;SDS011;4266;48.816;9.154;2023-04-25T13:12:24;9.20;;;6.63;;
8458;SDS011;4266;48.816;9.154;2023-04-25T13:14:50;6.87;;;6.27;;
8458;SDS011;4266;48.816;9.154;2023-04-25T13:17:16;6.87;;;6.27;;
8458;SDS011;4266;48.816;9.154;2023-04-25T13:19:41;7.63;;;6.43;;
8458;SDS011;4266;48.816;9.154;2023-04-25T13:22:08;7.23;;;6.40;;
8458;SDS011;4266;48.816;9.154;2023-04-25T13:24:33;7.60;;;6.90;;
8458;SDS011;4266;48.816;9.154;2023-04-25T13:26:59;7.33;;;6.70;;
8458;SDS011;4266;48.816;9.154;2023-04-25T13:29:25;8.53;;;6.67;;
8458;SDS011;4266;48.816;9.154;2023-04-25T13:31:50;7.50;;;6.80;;
8458;SDS011;4266;48.816;9.154;2023-04-25T13:34:17;7.90;;;7.13;;
8458;SDS011;4266;48.816;9.154;2023-04-25T13:36:42;9.17;;;7.87;;
8458;SDS011;4266;48.816;9.154;2023-04-25T13:39:08;10.70;;;7.87;;
8458;SDS011;4266;48.816;9.154;2023-04-25T13:41:34;9.53;;;7.90;;
8458;SDS011;4266;48.816;9.154;2023-04-25T13:43:59;9.90;;;8.10;;
8458;SDS011;4266;48.816;9.154;2023-04-25T13:46:25;9.60;;;8.40;;
8458;SDS011;4266;48.816;9.154;2023-04-25T13:48:51;9.43;;;8.57;;
8458;SDS011;4266;48.816;9.154;2023-04-25T13:51:16;10.07;;;8.97;;
8458;SDS011;4266;48.816;9.154;2023-04-25T13:53:42;9.60;;;8.63;;
8458;SDS011;4266;48.816;9.154;2023-04-25T13:56:09;11.83;;;9.20;;
8458;SDS011;4266;48.816;9.154;2023-04-25T13:58:35;9.10;;;8.30;;
8458;SDS011;4266;48.816;9.154;2023-04-25T14:01:01;11.53;;;8.40;;
8458;SDS011;4266;48.816;9.154;2023-04-25T14:03:26;8.83;;;7.67;;
8458;SDS011;4266;48.816;9.154;2023-04-25T14:05:53;9.70;;;8.77;;
8458;SDS011;4266;48.816;9.154;2023-04-25T14:08:18;11.17;;;8.20;;
8458;SDS011;4266;48.816;9.154;2023-04-25T14:10:44;8.53;;;7.73;;
8458;SDS011;4266;48.816;9.154;2023-04-25T14:13:10;13.23;;;7.63;;
8458;SDS011;4266;48.816;9.154;2023-04-25T14:15:36;8.70;;;7.30;;
8458;SDS011;4266;48.816;9.154;2023-04-25T14:18:02;8.00;;;7.23;;
8458;SDS011;4266;48.816;9.154;2023-04-25T14:20:29;7.93;;;7.00;;
8458;SDS011;4266;48.816;9.154;2023-04-25T14:22:55;6.80;;;6.20;;
8458;SDS011;4266;48.816;9.154;2023-04-25T14:25:20;7.53;;;6.83;;
8458;SDS011;4266;48.816;9.154;2023-04-25T14:27:47;8.50;;;6.23;;
8458;SDS011;4266;48.816;9.154;2023-04-25T14:30:14;6.93;;;6.40;;
8458;SDS011;4266;48.816;9.154;2023-04-25T14:32:40;6.70;;;6.10;;
8458;SDS011;4266;48.816;9.154;2023-04-25T14:35:07;7.07;;;6.37;;
8458;SDS011;4266;48.816;9.154;2023-04-25T14:37:34;6.20;;;5.60;;
8458;SDS011;4266;48.816;9.154;2023-04-25T14:40:00;6.60;;;5.93;;
8458;SDS011;4266;48.816;9.154;2023-04-25T14:42:26;6.33;;;5.83;;
8458;SDS011;4266;48.816;9.154;2023-04-25T14:44:51;6.17;;;5.57;;
8458;SDS011;4266;48.816;9.154;2023-04-25T14:47:17;6.73;;;5.77;;
8458;SDS011;4266;48.816;9.154;2023-04-25T14:49:43;6.50;;;5.90;;
8458;SDS011;4266;48.816;9.154;2023-04-25T14:52:10;7.20;;;6.33;;
8458;SDS011;4266;48.816;9.154;2023-04-25T14:54:36;6.40;;;5.90;;
8458;SDS011;4266;48.816;9.154;2023-04-25T14:57:02;8.10;;;6.57;;
8458;SDS011;4266;48.816;9.154;2023-04-25T14:59:28;9.93;;;7.83;;
8458;SDS011;4266;48.816;9.154;2023-04-25T15:01:55;7.73;;;6.83;;
8458;SDS011;4266;48.816;9.154;2023-04-25T15:04:22;7.57;;;6.87;;
8458;SDS011;4266;48.816;9.154;2023-04-25T15:06:48;8.40;;;6.77;;
8458;SDS011;4266;48.816;9.154;2023-04-25T15:09:14;8.27;;;7.13;;
8458;SDS011;4266;48.816;9.154;2023-04-25T15:11:41;7.53;;;6.93;;
8458;SDS011;4266;48.816;9.154;2023-04-25T15:14:07;9.23;;;7.30;;
8458;SDS011;4266;48.816;9.154;2023-04-25T15:16:33;8.13;;;7.23;;
8458;SDS011;4266;48.816;9.154;2023-04-25T15:19:00;6.80;;;6.20;;
8458;SDS011;4266;48.816;9.154;2023-04-25T15:21:25;7.40;;;6.20;;